sensor_id;sensor_type;location;lat;lon;timestamp;P1;durP1;ratioP1;P2;durP2;ratioP2
79664;SDS011;69132;44.014;20.918;2024-01-30T05:32:01;70.85;;;37.38;;
79664;SDS011;69132;44.014;20.918;2024-01-30T05:34:27;67.82;;;35.03;;
79664;SDS011;69132;44.014;20.918;2024-01-30T05:36:53;63.67;;;35.13;;
79664;SDS011;69132;44.014;20.918;2024-01-30T05:39:19;56.53;;;31.50;;
79664;SDS011;69132;44.014;20.918;2024-01-30T05:41:45;63.45;;;32.58;;
79664;SDS011;69132;44.014;20.918;2024-01-30T05:44:11;64.55;;;31.27;;
79664;SDS011;69132;44.014;20.918;2024-01-30T05:46:38;60.33;;;31.67;;
79664;SDS011;69132;44.014;20.918;2024-01-30T05:49:04;70.03;;;36.25;;
79664;SDS011;69132;44.014;20.918;2024-01-30T05:51:31;89.53;;;38.17;;
79664;SDS011;69132;44.014;20.918;2024-01-30T05:54:00;71.63;;;35.17;;
79664;SDS011;69132;44.014;20.918;2024-01-30T05:56:28;81.85;;;38.53;;
79664;SDS011;69132;44.014;20.918;2024-01-30T05:58:54;89.43;;;43.92;;
79664;SDS011;69132;44.014;20.918;2024-01-30T06:01:20;94.30;;;48.78;;
79664;SDS011;69132;44.014;20.918;2024-01-30T06:03:46;85.68;;;44.53;;
79664;SDS011;69132;44.014;20.918;2024-01-30T06:06:13;95.35;;;45.72;;
79664;SDS011;69132;44.014;20.918;2024-01-30T06:08:39;92.15;;;46.13;;
79664;SDS011;69132;44.014;20.918;2024-01-30T06:11:05;82.03;;;46.63;;
79664;SDS011;69132;44.014;20.918;2024-01-30T06:13:34;95.38;;;44.40;;
79664;SDS011;69132;44.014;20.918;2024-01-30T06:16:03;91.15;;;48.45;;
79664;SDS011;69132;44.014;20.918;2024-01-30T06:18:29;102.32;;;50.65;;
79664;SDS011;69132;44.014;20.918;2024-01-30T06:20:57;83.78;;;42.83;;
79664;SDS011;69132;44.014;20.918;2024-01-30T06:23:26;94.03;;;44.13;;
79664;SDS011;69132;44.014;20.918;2024-01-30T06:25:52;77.95;;;42.20;;
79664;SDS011;69132;44.014;20.918;2024-01-30T06:28:18;97.55;;;46.83;;
79664;SDS011;69132;44.014;20.918;2024-01-30T06:30:45;84.22;;;43.08;;
79664;SDS011;69132;44.014;20.918;2024-01-30T06:33:13;78.68;;;45.00;;
79664;SDS011;69132;44.014;20.918;2024-01-30T06:35:40;72.22;;;39.00;;
79664;SDS011;69132;44.014;20.918;2024-01-30T06:38:08;78.57;;;42.28;;
79664;SDS011;69132;44.014;20.918;2024-01-30T06:40:36;74.40;;;39.83;;
79664;SDS011;69132;44.014;20.918;2024-01-30T06:43:04;60.83;;;34.70;;
79664;SDS011;69132;44.014;20.918;2024-01-30T06:45:31;81.80;;;43.42;;
79664;SDS011;69132;44.014;20.918;2024-01-30T06:47:57;70.35;;;39.08;;
79664;SDS011;69132;44.014;20.918;2024-01-30T06:50:24;72.90;;;39.88;;
79664;SDS011;69132;44.014;20.918;2024-01-30T06:52:50;63.72;;;35.35;;
79664;SDS011;69132;44.014;20.918;2024-01-30T06:55:16;63.20;;;34.45;;
79664;SDS011;69132;44.014;20.918;2024-01-30T06:57:42;68.38;;;34.05;;
79664;SDS011;69132;44.014;20.918;2024-01-30T07:00:08;70.80;;;39.80;;
79664;SDS011;69132;44.014;20.918;2024-01-30T07:02:34;71.72;;;42.67;;
79664;SDS011;69132;44.014;20.918;2024-01-30T07:05:01;78.20;;;42.15;;
79664;SDS011;69132;44.014;20.918;2024-01-30T07:07:28;78.70;;;40.35;;
79664;SDS011;69132;44.014;20.918;2024-01-30T07:09:54;87.13;;;37.30;;
79664;SDS011;69132;44.014;20.918;2024-01-30T07:12:23;66.72;;;35.22;;
79664;SDS011;69132;44.014;20.918;2024-01-30T07:14:50;64.50;;;37.60;;
79664;SDS011;69132;44.014;20.918;2024-01-30T07:17:16;64.00;;;35.15;;
79664;SDS011;69132;44.014;20.918;2024-01-30T07:22:13;62.55;;;33.80;;
79664;SDS011;69132;44.014;20.918;2024-01-30T07:24:43;66.43;;;36.90;;
79664;SDS011;69132;44.014;20.918;2024-01-30T07:27:15;129.30;;;67.82;;
79664;SDS011;69132;44.014;20.918;2024-01-30T07:29:42;77.67;;;45.40;;
79664;SDS011;69132;44.014;20.918;2024-01-30T07:32:08;63.65;;;38.13;;
79664;SDS011;69132;44.014;20.918;2024-01-30T07:34:45;54.70;;;31.45;;
79664;SDS011;69132;44.014;20.918;2024-01-30T07:37:11;53.65;;;34.20;;
79664;SDS011;69132;44.014;20.918;2024-01-30T07:42:06;52.47;;;34.67;;
79664;SDS011;69132;44.014;20.918;2024-01-30T07:44:32;51.85;;;33.58;;
79664;SDS011;69132;44.014;20.918;2024-01-30T07:47:01;61.88;;;36.15;;
79664;SDS011;69132;44.014;20.918;2024-01-30T07:49:28;57.28;;;37.65;;
79664;SDS011;69132;44.014;20.918;2024-01-30T07:51:54;85.82;;;54.85;;
79664;SDS011;69132;44.014;20.918;2024-01-30T07:54:21;130.00;;;84.90;;
79664;SDS011;69132;44.014;20.918;2024-01-30T07:56:51;124.07;;;74.37;;
79664;SDS011;69132;44.014;20.918;2024-01-30T07:59:17;118.65;;;76.80;;
79664;SDS011;69132;44.014;20.918;2024-01-30T08:01:44;115.90;;;73.57;;
79664;SDS011;69132;44.014;20.918;2024-01-30T08:04:16;117.43;;;76.47;;
79664;SDS011;69132;44.014;20.918;2024-01-30T08:06:42;113.95;;;72.25;;
79664;SDS011;69132;44.014;20.918;2024-01-30T08:09:09;126.32;;;72.20;;
79664;SDS011;69132;44.014;20.918;2024-01-30T08:11:35;115.53;;;75.00;;
79664;SDS011;69132;44.014;20.918;2024-01-30T08:14:01;122.88;;;79.07;;
79664;SDS011;69132;44.014;20.918;2024-01-30T08:16:28;125.85;;;78.38;;
79664;SDS011;69132;44.014;20.918;2024-01-30T08:18:54;117.35;;;72.15;;
79664;SDS011;69132;44.014;20.918;2024-01-30T08:21:22;110.60;;;64.47;;
79664;SDS011;69132;44.014;20.918;2024-01-30T08:23:50;105.60;;;70.40;;
79664;SDS011;69132;44.014;20.918;2024-01-30T08:29:20;133.05;;;78.47;;
79664;SDS011;69132;44.014;20.918;2024-01-30T08:31:47;127.88;;;75.57;;
79664;SDS011;69132;44.014;20.918;2024-01-30T08:34:18;141.77;;;82.82;;
79664;SDS011;69132;44.014;20.918;2024-01-30T08:36:44;135.40;;;79.63;;
79664;SDS011;69132;44.014;20.918;2024-01-30T08:39:11;131.07;;;74.80;;
79664;SDS011;69132;44.014;20.918;2024-01-30T08:41:37;130.77;;;80.10;;
79664;SDS011;69132;44.014;20.918;2024-01-30T08:44:03;146.05;;;79.53;;
79664;SDS011;69132;44.014;20.918;2024-01-30T08:46:30;138.80;;;75.65;;
79664;SDS011;69132;44.014;20.918;2024-01-30T08:48:56;127.60;;;74.03;;
79664;SDS011;69132;44.014;20.918;2024-01-30T08:51:22;124.28;;;70.82;;
79664;SDS011;69132;44.014;20.918;2024-01-30T08:53:50;133.88;;;77.30;;
79664;SDS011;69132;44.014;20.918;2024-01-30T08:56:18;131.13;;;70.93;;
79664;SDS011;69132;44.014;20.918;2024-01-30T08:58:44;124.47;;;71.80;;
79664;SDS011;69132;44.014;20.918;2024-01-30T09:01:10;115.38;;;66.57;;
79664;SDS011;69132;44.014;20.918;2024-01-30T09:03:37;95.75;;;58.10;;
79664;SDS011;69132;44.014;20.918;2024-01-30T09:06:10;97.93;;;59.25;;
79664;SDS011;69132;44.014;20.918;2024-01-30T09:08:37;95.80;;;62.65;;
79664;SDS011;69132;44.014;20.918;2024-01-30T09:11:10;98.22;;;64.10;;
79664;SDS011;69132;44.014;20.918;2024-01-30T09:13:36;95.05;;;61.50;;
79664;SDS011;69132;44.014;20.918;2024-01-30T09:16:02;98.40;;;60.28;;
79664;SDS011;69132;44.014;20.918;2024-01-30T09:18:28;97.97;;;63.35;;
79664;SDS011;69132;44.014;20.918;2024-01-30T09:20:55;87.57;;;55.03;;
79664;SDS011;69132;44.014;20.918;2024-01-30T09:23:22;101.43;;;63.72;;
79664;SDS011;69132;44.014;20.918;2024-01-30T09:25:48;84.15;;;58.78;;
79664;SDS011;69132;44.014;20.918;2024-01-30T09:28:14;104.82;;;67.22;;
79664;SDS011;69132;44.014;20.918;2024-01-30T09:30:40;85.38;;;56.95;;
79664;SDS011;69132;44.014;20.918;2024-01-30T09:33:06;82.55;;;60.72;;
79664;SDS011;69132;44.014;20.918;2024-01-30T09:35:32;124.60;;;69.40;;
79664;SDS011;69132;44.014;20.918;2024-01-30T09:37:59;83.10;;;51.53;;
79664;SDS011;69132;44.014;20.918;2024-01-30T09:40:25;68.43;;;49.20;;
79664;SDS011;69132;44.014;20.918;2024-01-30T09:42:51;55.17;;;40.97;;
79664;SDS011;69132;44.014;20.918;2024-01-30T09:45:23;50.53;;;35.30;;
79664;SDS011;69132;44.014;20.918;2024-01-30T09:47:49;39.22;;;26.02;;
79664;SDS011;69132;44.014;20.918;2024-01-30T09:50:17;49.25;;;33.58;;
79664;SDS011;69132;44.014;20.918;2024-01-30T09:52:47;52.13;;;36.38;;
79664;SDS011;69132;44.014;20.918;2024-01-30T09:55:13;15.18;;;10.77;;
79664;SDS011;69132;44.014;20.918;2024-01-30T09:57:39;33.20;;;22.70;;
79664;SDS011;69132;44.014;20.918;2024-01-30T10:00:07;27.77;;;21.27;;
79664;SDS011;69132;44.014;20.918;2024-01-30T10:02:34;28.80;;;19.33;;
79664;SDS011;69132;44.014;20.918;2024-01-30T10:05:01;26.35;;;18.05;;
79664;SDS011;69132;44.014;20.918;2024-01-30T10:07:28;28.40;;;20.17;;
79664;SDS011;69132;44.014;20.918;2024-01-30T10:09:55;11.82;;;8.35;;
79664;SDS011;69132;44.014;20.918;2024-01-30T10:12:34;16.27;;;10.55;;
79664;SDS011;69132;44.014;20.918;2024-01-30T10:15:01;12.50;;;8.10;;
79664;SDS011;69132;44.014;20.918;2024-01-30T10:17:27;10.77;;;8.00;;
79664;SDS011;69132;44.014;20.918;2024-01-30T10:19:55;12.07;;;7.68;;
79664;SDS011;69132;44.014;20.918;2024-01-30T10:22:21;13.95;;;7.55;;
79664;SDS011;69132;44.014;20.918;2024-01-30T10:24:48;9.25;;;6.97;;
79664;SDS011;69132;44.014;20.918;2024-01-30T10:27:14;7.57;;;6.63;;
79664;SDS011;69132;44.014;20.918;2024-01-30T10:29:40;10.02;;;8.05;;
79664;SDS011;69132;44.014;20.918;2024-01-30T10:32:07;8.13;;;5.55;;
79664;SDS011;69132;44.014;20.918;2024-01-30T10:34:34;10.43;;;6.97;;
79664;SDS011;69132;44.014;20.918;2024-01-30T10:39:29;7.85;;;5.90;;
79664;SDS011;69132;44.014;20.918;2024-01-30T10:41:59;9.00;;;6.07;;
79664;SDS011;69132;44.014;20.918;2024-01-30T10:44:26;7.90;;;5.47;;
79664;SDS011;69132;44.014;20.918;2024-01-30T10:46:56;8.60;;;5.60;;
79664;SDS011;69132;44.014;20.918;2024-01-30T10:49:27;7.10;;;5.15;;
79664;SDS011;69132;44.014;20.918;2024-01-30T10:51:54;12.52;;;5.97;;
79664;SDS011;69132;44.014;20.918;2024-01-30T10:54:20;6.90;;;5.80;;
79664;SDS011;69132;44.014;20.918;2024-01-30T10:56:49;6.28;;;5.22;;
79664;SDS011;69132;44.014;20.918;2024-01-30T10:59:15;14.07;;;7.37;;
79664;SDS011;69132;44.014;20.918;2024-01-30T11:01:42;11.45;;;7.03;;
79664;SDS011;69132;44.014;20.918;2024-01-30T11:04:08;6.63;;;5.93;;
79664;SDS011;69132;44.014;20.918;2024-01-30T11:06:40;8.23;;;6.55;;
79664;SDS011;69132;44.014;20.918;2024-01-30T11:09:10;9.80;;;7.00;;
79664;SDS011;69132;44.014;20.918;2024-01-30T11:11:57;9.75;;;6.78;;
79664;SDS011;69132;44.014;20.918;2024-01-30T11:14:26;8.90;;;6.88;;
79664;SDS011;69132;44.014;20.918;2024-01-30T11:16:53;8.25;;;6.05;;
79664;SDS011;69132;44.014;20.918;2024-01-30T11:19:36;6.10;;;5.32;;
79664;SDS011;69132;44.014;20.918;2024-01-30T11:22:02;7.72;;;5.47;;
79664;SDS011;69132;44.014;20.918;2024-01-30T11:24:29;9.85;;;6.55;;
79664;SDS011;69132;44.014;20.918;2024-01-30T11:26:56;17.17;;;7.68;;
79664;SDS011;69132;44.014;20.918;2024-01-30T11:29:28;6.50;;;5.47;;
79664;SDS011;69132;44.014;20.918;2024-01-30T11:31:55;8.55;;;6.32;;
79664;SDS011;69132;44.014;20.918;2024-01-30T11:34:23;9.20;;;6.13;;
79664;SDS011;69132;44.014;20.918;2024-01-30T11:36:51;10.85;;;7.78;;
79664;SDS011;69132;44.014;20.918;2024-01-30T11:39:23;11.23;;;6.00;;
79664;SDS011;69132;44.014;20.918;2024-01-30T11:41:53;6.57;;;5.03;;
79664;SDS011;69132;44.014;20.918;2024-01-30T11:44:20;5.75;;;5.15;;
79664;SDS011;69132;44.014;20.918;2024-01-30T11:46:50;8.73;;;5.60;;
79664;SDS011;69132;44.014;20.918;2024-01-30T11:49:18;17.90;;;6.95;;
79664;SDS011;69132;44.014;20.918;2024-01-30T11:51:49;7.22;;;5.90;;
79664;SDS011;69132;44.014;20.918;2024-01-30T11:54:18;9.68;;;5.88;;
79664;SDS011;69132;44.014;20.918;2024-01-30T11:56:44;7.43;;;5.07;;
79664;SDS011;69132;44.014;20.918;2024-01-30T11:59:10;8.57;;;5.93;;
79664;SDS011;69132;44.014;20.918;2024-01-30T12:01:36;5.50;;;4.88;;
79664;SDS011;69132;44.014;20.918;2024-01-30T12:04:03;10.18;;;5.20;;
79664;SDS011;69132;44.014;20.918;2024-01-30T12:06:33;9.50;;;6.65;;
79664;SDS011;69132;44.014;20.918;2024-01-30T12:09:00;7.78;;;5.43;;
79664;SDS011;69132;44.014;20.918;2024-01-30T12:11:29;11.18;;;6.93;;
79664;SDS011;69132;44.014;20.918;2024-01-30T12:13:55;6.22;;;5.13;;
79664;SDS011;69132;44.014;20.918;2024-01-30T12:16:21;8.93;;;5.35;;
79664;SDS011;69132;44.014;20.918;2024-01-30T12:18:58;8.35;;;5.93;;
79664;SDS011;69132;44.014;20.918;2024-01-30T12:21:28;7.35;;;5.50;;
79664;SDS011;69132;44.014;20.918;2024-01-30T12:23:55;8.23;;;5.97;;
79664;SDS011;69132;44.014;20.918;2024-01-30T12:26:24;8.82;;;6.35;;
79664;SDS011;69132;44.014;20.918;2024-01-30T12:28:53;6.73;;;4.77;;
79664;SDS011;69132;44.014;20.918;2024-01-30T12:31:31;7.70;;;5.65;;
79664;SDS011;69132;44.014;20.918;2024-01-30T12:33:59;6.25;;;5.43;;
79664;SDS011;69132;44.014;20.918;2024-01-30T12:36:25;8.67;;;4.93;;
79664;SDS011;69132;44.014;20.918;2024-01-30T12:38:54;5.43;;;4.65;;
79664;SDS011;69132;44.014;20.918;2024-01-30T12:41:20;8.98;;;6.30;;
79664;SDS011;69132;44.014;20.918;2024-01-30T12:43:46;13.18;;;7.25;;
79664;SDS011;69132;44.014;20.918;2024-01-30T12:46:16;19.35;;;7.00;;
79664;SDS011;69132;44.014;20.918;2024-01-30T12:48:43;7.32;;;5.70;;
79664;SDS011;69132;44.014;20.918;2024-01-30T12:51:11;7.47;;;5.72;;
79664;SDS011;69132;44.014;20.918;2024-01-30T12:53:37;9.38;;;6.07;;
79664;SDS011;69132;44.014;20.918;2024-01-30T12:56:03;8.70;;;5.28;;
79664;SDS011;69132;44.014;20.918;2024-01-30T12:58:31;4.45;;;3.67;;
79664;SDS011;69132;44.014;20.918;2024-01-30T13:00:59;7.93;;;5.43;;
79664;SDS011;69132;44.014;20.918;2024-01-30T13:03:25;4.97;;;3.85;;
79664;SDS011;69132;44.014;20.918;2024-01-30T13:05:51;6.95;;;4.20;;
79664;SDS011;69132;44.014;20.918;2024-01-30T13:08:19;6.03;;;3.95;;
79664;SDS011;69132;44.014;20.918;2024-01-30T13:10:46;6.65;;;4.53;;
79664;SDS011;69132;44.014;20.918;2024-01-30T13:13:12;5.28;;;4.55;;
79664;SDS011;69132;44.014;20.918;2024-01-30T13:15:38;6.63;;;4.15;;
79664;SDS011;69132;44.014;20.918;2024-01-30T13:18:04;7.88;;;5.45;;
79664;SDS011;69132;44.014;20.918;2024-01-30T13:20:31;7.95;;;4.50;;
79664;SDS011;69132;44.014;20.918;2024-01-30T13:22:57;9.68;;;5.43;;
79664;SDS011;69132;44.014;20.918;2024-01-30T13:25:24;7.47;;;5.22;;
79664;SDS011;69132;44.014;20.918;2024-01-30T13:27:50;5.82;;;4.65;;
79664;SDS011;69132;44.014;20.918;2024-01-30T13:30:17;6.32;;;5.35;;
79664;SDS011;69132;44.014;20.918;2024-01-30T13:32:44;7.05;;;5.57;;
79664;SDS011;69132;44.014;20.918;2024-01-30T13:35:13;8.52;;;5.55;;
79664;SDS011;69132;44.014;20.918;2024-01-30T13:37:39;13.88;;;7.03;;
79664;SDS011;69132;44.014;20.918;2024-01-30T13:43:00;11.00;;;5.70;;
79664;SDS011;69132;44.014;20.918;2024-01-30T13:45:27;6.70;;;5.55;;
79664;SDS011;69132;44.014;20.918;2024-01-30T13:54:01;16.23;;;7.38;;
79664;SDS011;69132;44.014;20.918;2024-01-30T13:56:27;10.77;;;5.28;;
79664;SDS011;69132;44.014;20.918;2024-01-30T13:58:55;11.02;;;5.85;;
79664;SDS011;69132;44.014;20.918;2024-01-30T14:01:21;7.60;;;5.20;;
79664;SDS011;69132;44.014;20.918;2024-01-30T14:03:48;8.90;;;5.40;;
79664;SDS011;69132;44.014;20.918;2024-01-30T14:06:22;7.32;;;5.00;;
79664;SDS011;69132;44.014;20.918;2024-01-30T14:08:49;8.20;;;5.47;;
79664;SDS011;69132;44.014;20.918;2024-01-30T14:11:15;6.70;;;5.13;;
79664;SDS011;69132;44.014;20.918;2024-01-30T14:13:41;11.60;;;4.93;;
79664;SDS011;69132;44.014;20.918;2024-01-30T14:16:07;8.57;;;5.60;;
79664;SDS011;69132;44.014;20.918;2024-01-30T14:18:33;11.40;;;5.80;;
79664;SDS011;69132;44.014;20.918;2024-01-30T14:20:59;8.07;;;5.70;;
79664;SDS011;69132;44.014;20.918;2024-01-30T14:23:25;9.52;;;6.28;;
79664;SDS011;69132;44.014;20.918;2024-01-30T14:25:52;9.98;;;5.65;;
79664;SDS011;69132;44.014;20.918;2024-01-30T14:28:19;13.07;;;6.70;;
79664;SDS011;69132;44.014;20.918;2024-01-30T14:30:45;11.20;;;6.50;;
79664;SDS011;69132;44.014;20.918;2024-01-30T14:33:12;8.52;;;6.85;;
79664;SDS011;69132;44.014;20.918;2024-01-30T14:35:39;15.45;;;7.63;;
79664;SDS011;69132;44.014;20.918;2024-01-30T14:38:05;8.77;;;6.05;;
79664;SDS011;69132;44.014;20.918;2024-01-30T14:40:32;10.07;;;6.13;;
79664;SDS011;69132;44.014;20.918;2024-01-30T14:43:00;12.00;;;6.25;;
79664;SDS011;69132;44.014;20.918;2024-01-30T14:45:27;17.98;;;7.78;;
79664;SDS011;69132;44.014;20.918;2024-01-30T14:47:53;16.75;;;7.78;;
79664;SDS011;69132;44.014;20.918;2024-01-30T14:50:20;46.05;;;25.17;;
79664;SDS011;69132;44.014;20.918;2024-01-30T14:52:47;32.13;;;18.88;;
79664;SDS011;69132;44.014;20.918;2024-01-30T14:55:15;28.50;;;13.65;;
79664;SDS011;69132;44.014;20.918;2024-01-30T14:57:42;11.18;;;7.90;;
79664;SDS011;69132;44.014;20.918;2024-01-30T15:00:10;11.65;;;7.03;;
79664;SDS011;69132;44.014;20.918;2024-01-30T15:02:37;9.82;;;7.60;;
79664;SDS011;69132;44.014;20.918;2024-01-30T15:05:03;19.08;;;11.85;;
79664;SDS011;69132;44.014;20.918;2024-01-30T15:07:30;13.38;;;9.50;;
79664;SDS011;69132;44.014;20.918;2024-01-30T15:09:56;9.95;;;7.95;;
79664;SDS011;69132;44.014;20.918;2024-01-30T15:12:22;10.23;;;7.60;;
79664;SDS011;69132;44.014;20.918;2024-01-30T15:14:48;12.52;;;7.80;;
79664;SDS011;69132;44.014;20.918;2024-01-30T15:17:21;13.50;;;7.70;;
79664;SDS011;69132;44.014;20.918;2024-01-30T15:19:47;12.77;;;7.55;;
79664;SDS011;69132;44.014;20.918;2024-01-30T15:22:15;12.60;;;7.88;;
79664;SDS011;69132;44.014;20.918;2024-01-30T15:24:41;14.50;;;7.90;;
79664;SDS011;69132;44.014;20.918;2024-01-30T15:27:09;13.10;;;8.07;;
79664;SDS011;69132;44.014;20.918;2024-01-30T15:29:37;16.05;;;8.05;;
79664;SDS011;69132;44.014;20.918;2024-01-30T15:32:03;14.52;;;8.80;;
79664;SDS011;69132;44.014;20.918;2024-01-30T15:34:32;16.38;;;9.32;;
79664;SDS011;69132;44.014;20.918;2024-01-30T15:36:58;17.08;;;9.85;;
79664;SDS011;69132;44.014;20.918;2024-01-30T15:39:26;16.83;;;9.25;;
79664;SDS011;69132;44.014;20.918;2024-01-30T15:41:52;18.45;;;9.88;;
79664;SDS011;69132;44.014;20.918;2024-01-30T15:44:18;18.73;;;9.85;;
79664;SDS011;69132;44.014;20.918;2024-01-30T15:46:44;15.55;;;9.05;;
79664;SDS011;69132;44.014;20.918;2024-01-30T15:49:11;17.85;;;11.18;;
79664;SDS011;69132;44.014;20.918;2024-01-30T15:51:37;19.42;;;12.23;;
79664;SDS011;69132;44.014;20.918;2024-01-30T15:54:07;20.92;;;11.75;;
79664;SDS011;69132;44.014;20.918;2024-01-30T15:56:34;21.27;;;12.20;;
79664;SDS011;69132;44.014;20.918;2024-01-30T15:59:00;16.70;;;10.18;;
79664;SDS011;69132;44.014;20.918;2024-01-30T16:01:27;22.00;;;10.85;;
79664;SDS011;69132;44.014;20.918;2024-01-30T16:03:53;22.48;;;11.45;;
79664;SDS011;69132;44.014;20.918;2024-01-30T16:06:19;26.95;;;11.48;;
79664;SDS011;69132;44.014;20.918;2024-01-30T16:08:47;28.02;;;11.52;;
79664;SDS011;69132;44.014;20.918;2024-01-30T16:11:13;26.70;;;11.68;;
79664;SDS011;69132;44.014;20.918;2024-01-30T16:13:43;22.10;;;11.55;;
79664;SDS011;69132;44.014;20.918;2024-01-30T16:16:12;22.95;;;10.90;;
79664;SDS011;69132;44.014;20.918;2024-01-30T16:18:38;19.48;;;11.73;;
79664;SDS011;69132;44.014;20.918;2024-01-30T16:21:04;29.65;;;15.52;;
79664;SDS011;69132;44.014;20.918;2024-01-30T16:23:31;37.97;;;17.15;;
79664;SDS011;69132;44.014;20.918;2024-01-30T16:25:57;34.63;;;17.92;;
79664;SDS011;69132;44.014;20.918;2024-01-30T16:28:25;34.88;;;16.85;;
79664;SDS011;69132;44.014;20.918;2024-01-30T16:30:51;67.75;;;40.75;;
79664;SDS011;69132;44.014;20.918;2024-01-30T16:36:28;85.72;;;49.80;;
79664;SDS011;69132;44.014;20.918;2024-01-30T16:38:55;93.15;;;53.45;;
79664;SDS011;69132;44.014;20.918;2024-01-30T16:41:23;82.20;;;51.53;;
79664;SDS011;69132;44.014;20.918;2024-01-30T16:43:50;78.65;;;51.92;;
79664;SDS011;69132;44.014;20.918;2024-01-30T16:46:16;75.18;;;47.90;;
79664;SDS011;69132;44.014;20.918;2024-01-30T16:51:46;98.93;;;54.20;;
79664;SDS011;69132;44.014;20.918;2024-01-30T16:54:12;79.18;;;48.95;;
79664;SDS011;69132;44.014;20.918;2024-01-30T16:56:40;73.53;;;48.63;;
79664;SDS011;69132;44.014;20.918;2024-01-30T16:59:12;62.05;;;36.38;;
79664;SDS011;69132;44.014;20.918;2024-01-30T17:01:40;50.47;;;33.80;;
79664;SDS011;69132;44.014;20.918;2024-01-30T17:04:12;59.33;;;38.22;;
79664;SDS011;69132;44.014;20.918;2024-01-30T17:06:41;62.80;;;40.47;;
79664;SDS011;69132;44.014;20.918;2024-01-30T17:09:07;59.40;;;39.00;;
79664;SDS011;69132;44.014;20.918;2024-01-30T17:11:35;54.88;;;37.55;;
79664;SDS011;69132;44.014;20.918;2024-01-30T17:14:01;47.50;;;32.10;;
79664;SDS011;69132;44.014;20.918;2024-01-30T17:16:28;47.05;;;32.58;;
79664;SDS011;69132;44.014;20.918;2024-01-30T17:18:54;53.38;;;36.55;;
79664;SDS011;69132;44.014;20.918;2024-01-30T17:23:49;47.15;;;34.25;;
79664;SDS011;69132;44.014;20.918;2024-01-30T17:26:15;54.30;;;35.67;;
79664;SDS011;69132;44.014;20.918;2024-01-30T17:28:41;53.08;;;37.15;;
79664;SDS011;69132;44.014;20.918;2024-01-30T17:31:07;56.50;;;37.70;;
79664;SDS011;69132;44.014;20.918;2024-01-30T17:33:33;54.03;;;38.33;;
79664;SDS011;69132;44.014;20.918;2024-01-30T17:36:03;55.92;;;35.78;;
79664;SDS011;69132;44.014;20.918;2024-01-30T17:38:29;52.83;;;35.92;;
79664;SDS011;69132;44.014;20.918;2024-01-30T17:40:55;52.55;;;36.05;;
79664;SDS011;69132;44.014;20.918;2024-01-30T17:43:21;49.75;;;36.60;;
79664;SDS011;69132;44.014;20.918;2024-01-30T17:45:48;52.42;;;36.28;;
79664;SDS011;69132;44.014;20.918;2024-01-30T17:48:15;55.80;;;33.53;;
79664;SDS011;69132;44.014;20.918;2024-01-30T17:50:43;49.47;;;31.00;;
79664;SDS011;69132;44.014;20.918;2024-01-30T17:53:10;49.42;;;34.80;;
79664;SDS011;69132;44.014;20.918;2024-01-30T17:55:36;52.88;;;33.72;;
79664;SDS011;69132;44.014;20.918;2024-01-30T17:58:03;51.88;;;30.25;;
79664;SDS011;69132;44.014;20.918;2024-01-30T18:00:30;55.05;;;31.58;;
79664;SDS011;69132;44.014;20.918;2024-01-30T18:05:45;53.08;;;30.80;;
79664;SDS011;69132;44.014;20.918;2024-01-30T18:08:11;54.58;;;35.70;;
79664;SDS011;69132;44.014;20.918;2024-01-30T18:13:55;63.33;;;39.53;;
79664;SDS011;69132;44.014;20.918;2024-01-30T18:16:21;60.95;;;39.30;;
79664;SDS011;69132;44.014;20.918;2024-01-30T18:18:49;58.33;;;32.63;;
79664;SDS011;69132;44.014;20.918;2024-01-30T18:21:15;55.50;;;32.63;;
79664;SDS011;69132;44.014;20.918;2024-01-30T18:23:41;59.35;;;32.28;;
79664;SDS011;69132;44.014;20.918;2024-01-30T18:26:07;49.78;;;33.47;;
79664;SDS011;69132;44.014;20.918;2024-01-30T18:28:35;70.45;;;48.65;;
79664;SDS011;69132;44.014;20.918;2024-01-30T18:31:01;82.80;;;51.47;;
79664;SDS011;69132;44.014;20.918;2024-01-30T18:33:27;76.55;;;49.33;;
79664;SDS011;69132;44.014;20.918;2024-01-30T18:35:54;67.60;;;43.78;;
79664;SDS011;69132;44.014;20.918;2024-01-30T18:38:20;75.60;;;46.50;;
79664;SDS011;69132;44.014;20.918;2024-01-30T18:40:46;70.18;;;45.75;;
79664;SDS011;69132;44.014;20.918;2024-01-30T18:43:14;72.65;;;43.72;;
79664;SDS011;69132;44.014;20.918;2024-01-30T18:45:42;70.60;;;43.80;;
79664;SDS011;69132;44.014;20.918;2024-01-30T18:48:08;74.53;;;48.00;;
79664;SDS011;69132;44.014;20.918;2024-01-30T18:50:37;72.55;;;44.58;;
79664;SDS011;69132;44.014;20.918;2024-01-30T18:53:05;77.32;;;48.80;;
79664;SDS011;69132;44.014;20.918;2024-01-30T18:55:31;86.07;;;51.00;;
79664;SDS011;69132;44.014;20.918;2024-01-30T18:57:58;83.57;;;55.25;;
79664;SDS011;69132;44.014;20.918;2024-01-30T19:00:24;85.95;;;53.92;;
79664;SDS011;69132;44.014;20.918;2024-01-30T19:02:50;97.90;;;61.53;;
79664;SDS011;69132;44.014;20.918;2024-01-30T19:05:17;105.18;;;61.20;;
79664;SDS011;69132;44.014;20.918;2024-01-30T19:07:43;89.57;;;57.67;;
79664;SDS011;69132;44.014;20.918;2024-01-30T19:10:14;103.72;;;61.83;;
79664;SDS011;69132;44.014;20.918;2024-01-30T19:12:43;94.95;;;58.65;;
79664;SDS011;69132;44.014;20.918;2024-01-30T19:15:10;101.20;;;59.10;;
79664;SDS011;69132;44.014;20.918;2024-01-30T19:17:37;108.20;;;57.42;;
79664;SDS011;69132;44.014;20.918;2024-01-30T19:20:04;106.57;;;60.15;;
79664;SDS011;69132;44.014;20.918;2024-01-30T19:22:32;83.37;;;49.13;;
79664;SDS011;69132;44.014;20.918;2024-01-30T19:24:58;92.22;;;54.97;;
79664;SDS011;69132;44.014;20.918;2024-01-30T19:27:29;109.15;;;57.80;;
79664;SDS011;69132;44.014;20.918;2024-01-30T19:30:09;90.55;;;55.63;;
79664;SDS011;69132;44.014;20.918;2024-01-30T19:32:35;91.85;;;53.97;;
79664;SDS011;69132;44.014;20.918;2024-01-30T19:35:02;87.60;;;51.20;;
79664;SDS011;69132;44.014;20.918;2024-01-30T19:40:01;106.07;;;54.28;;
79664;SDS011;69132;44.014;20.918;2024-01-30T19:42:29;76.32;;;47.90;;
79664;SDS011;69132;44.014;20.918;2024-01-30T19:44:56;89.72;;;52.55;;
79664;SDS011;69132;44.014;20.918;2024-01-30T19:47:23;91.50;;;56.42;;
79664;SDS011;69132;44.014;20.918;2024-01-30T19:49:50;96.10;;;56.42;;
79664;SDS011;69132;44.014;20.918;2024-01-30T19:52:16;95.03;;;55.95;;
79664;SDS011;69132;44.014;20.918;2024-01-30T19:54:42;89.25;;;52.15;;
79664;SDS011;69132;44.014;20.918;2024-01-30T19:57:09;79.90;;;51.42;;
79664;SDS011;69132;44.014;20.918;2024-01-30T19:59:35;83.38;;;50.60;;
79664;SDS011;69132;44.014;20.918;2024-01-30T20:02:01;77.82;;;48.65;;
79664;SDS011;69132;44.014;20.918;2024-01-30T20:04:31;75.03;;;45.45;;
79664;SDS011;69132;44.014;20.918;2024-01-30T20:06:58;79.90;;;45.47;;
79664;SDS011;69132;44.014;20.918;2024-01-30T20:09:24;73.57;;;47.28;;
79664;SDS011;69132;44.014;20.918;2024-01-30T20:11:52;85.13;;;52.67;;
79664;SDS011;69132;44.014;20.918;2024-01-30T20:14:18;89.35;;;50.97;;
79664;SDS011;69132;44.014;20.918;2024-01-30T20:16:44;103.50;;;58.35;;
79664;SDS011;69132;44.014;20.918;2024-01-30T20:19:10;83.22;;;51.72;;
79664;SDS011;69132;44.014;20.918;2024-01-30T20:21:36;92.00;;;53.35;;
79664;SDS011;69132;44.014;20.918;2024-01-30T20:24:06;83.20;;;53.08;;